Time;durP1;ratioP1;P1;durP2;ratioP2;P2;SDS_P1;SDS_P2;PMS_P1;PMS_P2;Temp;Humidity;BMP_temperature;BMP_pressure;BME280_temperature;BME280_humidity;BME280_pressure;Samples;Min_cycle;Max_cycle;Signal;HPM_P1;HPM_P2
2021/09/03 00:01:00;;;;;;;7.70;4.32;;;;;;;15.48;85.69;98636.19;5032319;28;20057;-85
2021/09/03 00:03:26;;;;;;;5.60;4.70;;;;;;;15.33;85.67;98606.19;5031890;28;20124;-83
2021/09/03 00:05:51;;;;;;;6.60;4.80;;;;;;;15.43;87.04;98628.03;5016861;28;20025;-84
2021/09/03 00:08:17;;;;;;;5.85;4.15;;;;;;;15.44;86.21;98624.16;5034587;28;20049;-84
2021/09/03 00:10:42;;;;;;;6.50;4.25;;;;;;;15.42;85.65;98632.72;5033253;28;20048;-86
2021/09/03 00:13:08;;;;;;;7.47;4.85;;;;;;;15.34;85.78;98621.63;5016280;28;20569;-84
2021/09/03 00:15:33;;;;;;;10.85;4.38;;;;;;;15.17;86.89;98630.53;5032065;28;20580;-83
2021/09/03 00:18:02;;;;;;;8.13;4.75;;;;;;;15.09;87.61;98628.50;5014164;28;20099;-86
2021/09/03 00:20:28;;;;;;;9.77;4.85;;;;;;;15.01;88.19;98632.78;5014774;28;20034;-85
2021/09/03 00:22:54;;;;;;;5.57;4.53;;;;;;;14.97;88.42;98634.50;5033311;28;20030;-85
2021/09/03 00:25:20;;;;;;;8.02;4.70;;;;;;;14.84;88.97;98632.59;5018228;28;20064;-87
2021/09/03 00:27:45;;;;;;;8.57;4.70;;;;;;;14.71;89.85;98616.88;5018259;28;20025;-84
2021/09/03 00:30:11;;;;;;;10.10;5.30;;;;;;;14.69;89.98;98621.88;5036370;28;20018;-84
2021/09/03 00:32:37;;;;;;;7.93;4.95;;;;;;;14.70;89.89;98617.19;5036809;28;20060;-86
2021/09/03 00:35:03;;;;;;;8.45;4.88;;;;;;;14.63;89.97;98601.06;5036624;28;20024;-87
2021/09/03 00:37:29;;;;;;;10.68;5.70;;;;;;;14.75;90.07;98617.91;5017789;28;20180;-85
2021/09/03 00:39:55;;;;;;;7.93;5.38;;;;;;;14.71;91.01;98614.13;5035673;28;20137;-83
2021/09/03 00:42:21;;;;;;;7.60;5.30;;;;;;;14.74;91.16;98602.50;5017555;28;20036;-86
2021/09/03 00:44:46;;;;;;;9.10;5.93;;;;;;;14.93;89.97;98602.38;5018264;28;20029;-85
2021/09/03 00:47:11;;;;;;;9.98;6.68;;;;;;;14.93;89.78;98605.97;5035180;28;20521;-84
2021/09/03 00:49:37;;;;;;;10.32;8.43;;;;;;;14.93;89.47;98597.69;5037703;28;20033;-83
2021/09/03 00:52:05;;;;;;;14.60;7.65;;;;;;;14.94;89.78;98602.06;5032765;28;20081;-85
2021/09/03 00:54:31;;;;;;;9.25;5.88;;;;;;;15.03;89.48;98602.19;5042059;28;20021;-85
2021/09/03 00:56:57;;;;;;;9.60;6.28;;;;;;;15.10;89.95;98601.75;5028089;28;20057;-88
2021/09/03 00:59:23;;;;;;;7.43;5.45;;;;;;;15.22;89.31;98593.78;5021569;28;20030;-85
2021/09/03 01:01:48;;;;;;;9.30;5.30;;;;;;;15.10;88.26;98596.25;5032630;28;20129;-85
2021/09/03 01:04:14;;;;;;;9.68;5.32;;;;;;;15.11;88.48;98598.69;5056794;28;20038;-86
2021/09/03 01:06:39;;;;;;;6.90;5.00;;;;;;;15.10;88.58;98590.75;5034470;28;20037;-83
2021/09/03 01:09:05;;;;;;;12.38;5.00;;;;;;;15.19;88.11;98605.41;5039229;28;20033;-85
2021/09/03 01:11:30;;;;;;;9.18;5.38;;;;;;;15.13;88.97;98606.66;5026167;28;20025;-84
2021/09/03 01:13:55;;;;;;;9.93;4.95;;;;;;;15.12;88.83;98610.53;5042021;28;20032;-83
2021/09/03 01:16:21;;;;;;;6.35;4.75;;;;;;;15.18;89.44;98599.09;5038411;28;20075;-84
2021/09/03 01:18:49;;;;;;;6.95;4.82;;;;;;;15.20;89.67;98593.25;5034837;28;20033;-85
2021/09/03 01:21:15;;;;;;;6.38;4.90;;;;;;;14.99;90.19;98590.13;5018138;28;20060;-84
2021/09/03 01:23:40;;;;;;;7.72;5.05;;;;;;;15.00;90.27;98595.31;5017405;28;20068;-84
2021/09/03 01:26:06;;;;;;;8.13;4.80;;;;;;;15.05;90.27;98599.91;5017114;28;20033;-84
2021/09/03 01:28:32;;;;;;;5.97;4.55;;;;;;;14.91;90.74;98594.41;5016838;28;20044;-84
2021/09/03 01:30:57;;;;;;;11.93;5.40;;;;;;;14.80;91.44;98576.50;5016778;28;20035;-84
2021/09/03 01:33:23;;;;;;;5.40;4.22;;;;;;;14.89;91.51;98588.41;5015610;28;20390;-82
2021/09/03 01:35:48;;;;;;;7.07;4.80;;;;;;;14.87;91.54;98587.09;5032826;28;20041;-85
2021/09/03 01:38:15;;;;;;;10.50;5.57;;;;;;;14.80;92.18;98584.75;5033488;28;20041;-83
2021/09/03 01:40:41;;;;;;;5.70;4.88;;;;;;;14.80;92.40;98579.25;5033965;28;20029;-82
2021/09/03 01:43:08;;;;;;;9.07;5.15;;;;;;;14.70;92.95;98575.88;5030195;28;20452;-82
2021/09/03 01:45:33;;;;;;;4.95;4.43;;;;;;;14.72;93.23;98574.44;5015884;28;20569;-83
2021/09/03 01:47:59;;;;;;;6.90;5.55;;;;;;;14.71;93.48;98575.56;5032882;28;20033;-79
2021/09/03 01:50:24;;;;;;;6.57;4.88;;;;;;;14.72;94.34;98585.44;5032531;28;20032;-80
2021/09/03 01:52:50;;;;;;;6.07;4.57;;;;;;;14.57;94.75;98573.94;5033669;28;20116;-82
2021/09/03 01:55:15;;;;;;;9.45;4.82;;;;;;;14.67;94.68;98570.97;5017309;28;20103;-81
2021/09/03 01:57:40;;;;;;;7.88;6.05;;;;;;;14.77;94.03;98582.59;5031659;28;20025;-85
2021/09/03 02:00:08;;;;;;;7.03;5.18;;;;;;;14.57;95.19;98583.00;5015646;28;20045;-83
2021/09/03 02:02:34;;;;;;;8.02;5.50;;;;;;;14.46;95.14;98574.16;5014415;28;20398;-83
2021/09/03 02:04:59;;;;;;;10.52;5.75;;;;;;;14.46;95.85;98574.16;5014957;28;20037;-82
2021/09/03 02:07:25;;;;;;;9.75;6.10;;;;;;;14.29;95.49;98562.88;5033362;28;20033;-80
2021/09/03 02:09:50;;;;;;;7.15;4.95;;;;;;;14.43;94.87;98560.19;5013768;28;20006;-81
2021/09/03 02:12:16;;;;;;;8.77;5.95;;;;;;;14.44;93.79;98568.13;5013715;28;20052;-80
2021/09/03 02:14:43;;;;;;;7.88;5.88;;;;;;;14.34;93.98;98570.28;5031502;28;20351;-82
2021/09/03 02:17:09;;;;;;;8.18;5.75;;;;;;;14.10;94.08;98558.56;5031474;28;20037;-80
2021/09/03 02:19:34;;;;;;;9.50;5.55;;;;;;;14.27;94.29;98564.31;5031573;28;20033;-81
2021/09/03 02:22:00;;;;;;;8.65;4.95;;;;;;;14.23;92.93;98549.53;5032267;28;20045;-83
2021/09/03 02:24:26;;;;;;;7.57;4.88;;;;;;;14.17;93.38;98567.25;5032248;28;20033;-82
2021/09/03 02:26:51;;;;;;;6.93;5.22;;;;;;;13.97;94.53;98562.13;5031608;28;20029;-84
2021/09/03 02:29:16;;;;;;;7.47;5.68;;;;;;;14.05;94.95;98577.94;5031220;28;20025;-80
2021/09/03 02:31:42;;;;;;;7.60;5.50;;;;;;;14.04;94.30;98579.84;5031036;28;20029;-82
2021/09/03 02:34:07;;;;;;;9.05;5.53;;;;;;;14.16;94.22;98587.66;5031254;28;20033;-82
2021/09/03 02:36:33;;;;;;;7.18;5.28;;;;;;;14.02;95.44;98584.03;5031673;28;20034;-83
2021/09/03 02:38:58;;;;;;;7.82;5.25;;;;;;;14.08;94.25;98575.38;5051677;28;20389;-82
2021/09/03 02:41:25;;;;;;;7.65;5.32;;;;;;;14.01;94.14;98565.88;5051861;28;20485;-84
2021/09/03 02:43:52;;;;;;;9.18;5.45;;;;;;;14.04;94.50;98563.34;5034134;28;20056;-80
2021/09/03 02:46:17;;;;;;;9.90;5.22;;;;;;;14.20;94.03;98561.13;5031327;28;20018;-82
2021/09/03 02:48:43;;;;;;;6.60;5.57;;;;;;;14.22;93.06;98570.72;5032580;28;20479;-83
2021/09/03 02:51:08;;;;;;;8.05;5.50;;;;;;;14.14;93.40;98573.34;5031899;28;20034;-81
2021/09/03 02:53:34;;;;;;;8.07;4.85;;;;;;;14.27;94.05;98562.38;5031391;28;20478;-83
2021/09/03 02:55:59;;;;;;;9.63;5.70;;;;;;;14.15;94.13;98558.50;5013555;28;20117;-83
2021/09/03 02:58:25;;;;;;;7.40;5.07;;;;;;;14.11;94.05;98562.97;5031474;28;20022;-84
2021/09/03 03:00:50;;;;;;;11.18;5.57;;;;;;;14.10;93.86;98556.63;5033661;28;20025;-82
2021/09/03 03:03:16;;;;;;;12.55;5.90;;;;;;;14.03;95.20;98549.91;5050299;28;20040;-80
2021/09/03 03:05:42;;;;;;;10.85;5.78;;;;;;;14.04;94.26;98557.84;5030674;28;20528;-83
2021/09/03 03:08:07;;;;;;;11.38;5.97;;;;;;;13.78;96.18;98553.94;5019128;28;20033;-83
2021/09/03 03:10:33;;;;;;;7.85;5.82;;;;;;;13.81;96.10;98553.34;5033938;28;20095;-80
2021/09/03 03:12:59;;;;;;;7.68;5.95;;;;;;;13.73;96.91;98559.50;5014017;28;20037;-84
2021/09/03 03:15:26;;;;;;;9.32;6.20;;;;;;;13.57;97.86;98558.13;5013629;28;20025;-80
2021/09/03 03:17:52;;;;;;;7.82;6.05;;;;;;;13.65;98.62;98555.53;5031472;28;20037;-81
2021/09/03 03:20:17;;;;;;;7.15;5.55;;;;;;;13.58;98.20;98543.25;5031024;28;20022;-82
2021/09/03 03:22:46;;;;;;;7.75;5.38;;;;;;;13.50;99.14;98542.00;5035563;28;20056;-82
2021/09/03 03:25:12;;;;;;;8.23;5.45;;;;;;;13.28;100.00;98541.84;5044537;28;20089;-82
2021/09/03 03:27:39;;;;;;;6.85;5.13;;;;;;;13.18;100.00;98533.75;5034338;28;20155;-80
2021/09/03 03:30:05;;;;;;;9.80;6.50;;;;;;;13.12;100.00;98545.91;5050478;28;20013;-83
2021/09/03 03:32:31;;;;;;;9.00;5.88;;;;;;;12.84;100.00;98537.47;5050033;28;20509;-83
2021/09/03 03:34:56;;;;;;;10.88;6.20;;;;;;;12.70;100.00;98536.59;5040972;28;20044;-81
2021/09/03 03:37:21;;;;;;;8.32;5.75;;;;;;;12.74;100.00;98540.38;5014582;28;20179;-81
2021/09/03 03:39:47;;;;;;;7.07;5.35;;;;;;;12.46;100.00;98511.09;5012416;28;20029;-82
2021/09/03 03:42:13;;;;;;;9.68;6.38;;;;;;;12.55;100.00;98519.50;5030448;28;20442;-83
2021/09/03 03:44:39;;;;;;;7.68;5.72;;;;;;;12.47;100.00;98500.94;5031359;28;20053;-84
2021/09/03 03:47:04;;;;;;;7.78;6.13;;;;;;;12.53;100.00;98511.53;5030873;28;20128;-81
2021/09/03 03:49:29;;;;;;;8.13;5.80;;;;;;;12.68;100.00;98510.53;5030964;28;20029;-85
2021/09/03 03:51:55;;;;;;;7.78;6.35;;;;;;;12.53;100.00;98497.81;5013593;28;20541;-82
2021/09/03 03:54:20;;;;;;;9.43;6.25;;;;;;;12.60;100.00;98506.53;5029969;28;20079;-83
2021/09/03 03:56:46;;;;;;;9.05;6.38;;;;;;;12.59;100.00;98510.38;5029942;28;20105;-84
2021/09/03 03:59:11;;;;;;;10.60;6.22;;;;;;;12.58;100.00;98508.75;5015347;28;20022;-81
2021/09/03 04:01:37;;;;;;;8.07;5.90;;;;;;;12.51;100.00;98510.22;5036145;28;20026;-84
2021/09/03 04:04:02;;;;;;;12.32;6.32;;;;;;;12.62;100.00;98503.50;5036784;28;20382;-82
2021/09/03 04:06:29;;;;;;;9.60;5.60;;;;;;;12.71;100.00;98518.19;5038378;28;20018;-84
2021/09/03 04:08:54;;;;;;;7.13;5.90;;;;;;;12.58;100.00;98513.41;5038060;28;20382;-80
2021/09/03 04:11:20;;;;;;;7.25;5.82;;;;;;;12.48;100.00;98511.63;5037898;28;20029;-84
2021/09/03 04:13:45;;;;;;;8.85;7.00;;;;;;;12.24;100.00;98497.94;5037320;28;20017;-83
2021/09/03 04:16:11;;;;;;;7.05;5.53;;;;;;;12.22;100.00;98510.28;5037396;28;20508;-84
2021/09/03 04:18:38;;;;;;;6.40;4.72;;;;;;;12.07;100.00;98508.53;5036617;28;20031;-84
2021/09/03 04:21:05;;;;;;;8.75;5.78;;;;;;;12.22;100.00;98510.28;5019586;28;20021;-84
2021/09/03 04:23:31;;;;;;;12.65;6.45;;;;;;;12.17;100.00;98508.44;5033633;28;20039;-85
2021/09/03 04:26:00;;;;;;;10.40;6.45;;;;;;;12.24;100.00;98514.38;5019047;28;20014;-84
2021/09/03 04:28:26;;;;;;;9.13;6.20;;;;;;;12.32;100.00;98511.00;5036578;28;20031;-81
2021/09/03 04:30:51;;;;;;;11.82;6.30;;;;;;;12.40;100.00;98493.06;5036043;28;20041;-79
2021/09/03 04:33:16;;;;;;;9.25;6.07;;;;;;;12.47;100.00;98485.28;5035622;28;20371;-83
2021/09/03 04:35:51;;;;;;;7.63;5.22;;;;;;;12.65;100.00;98480.94;5036514;28;20037;-81
2021/09/03 04:38:17;;;;;;;13.30;6.40;;;;;;;12.57;100.00;98482.41;5034575;28;20045;-82
2021/09/03 04:40:44;;;;;;;11.25;6.25;;;;;;;12.86;100.00;98485.84;5036584;28;20815;-82
2021/09/03 04:43:10;;;;;;;9.27;6.40;;;;;;;12.79;100.00;98474.41;5037323;28;20037;-84
2021/09/03 04:45:35;;;;;;;7.22;6.10;;;;;;;12.80;100.00;98489.78;5018787;28;20025;-80
2021/09/03 04:48:01;;;;;;;9.45;6.35;;;;;;;12.73;100.00;98485.75;5036500;28;20040;-81
2021/09/03 04:50:26;;;;;;;9.32;6.25;;;;;;;12.64;100.00;98485.63;5036971;28;20013;-85
2021/09/03 04:52:52;;;;;;;8.55;6.55;;;;;;;12.65;100.00;98500.97;5018983;28;20390;-84
2021/09/03 04:55:17;;;;;;;10.45;5.18;;;;;;;12.70;100.00;98495.41;5036176;28;20086;-85
2021/09/03 04:57:44;;;;;;;6.00;4.82;;;;;;;12.69;100.00;98504.75;5036795;28;20021;-83
2021/09/03 05:00:16;;;;;;;7.05;5.35;;;;;;;12.73;100.00;98511.28;5036501;28;20394;-82
2021/09/03 05:03:13;;;;;;;10.45;5.90;;;;;;;12.76;100.00;98493.41;5037625;28;20116;-84
2021/09/03 05:05:38;;;;;;;8.57;5.47;;;;;;;12.86;100.00;98518.78;5021395;28;20036;-83
2021/09/03 05:08:08;;;;;;;6.97;5.93;;;;;;;13.00;100.00;98515.31;5035848;28;20030;-79
2021/09/03 05:10:33;;;;;;;7.65;5.43;;;;;;;13.02;100.00;98513.91;5032229;28;20465;-78
2021/09/03 05:12:59;;;;;;;8.57;5.40;;;;;;;13.15;99.80;98512.38;5036871;28;20162;-77
2021/09/03 05:15:33;;;;;;;9.32;5.50;;;;;;;13.30;98.63;98521.19;5032299;28;20577;-76
2021/09/03 05:17:59;;;;;;;7.57;5.53;;;;;;;13.56;96.94;98529.84;5015437;28;20029;-75
2021/09/03 05:20:24;;;;;;;10.27;6.13;;;;;;;13.82;94.38;98516.44;5012674;28;20021;-75
2021/09/03 05:22:49;;;;;;;6.43;4.97;;;;;;;13.89;93.34;98516.88;5031769;28;20032;-77
2021/09/03 05:25:15;;;;;;;7.45;5.43;;;;;;;13.88;93.29;98518.81;5035394;28;20032;-79
2021/09/03 05:27:41;;;;;;;6.18;4.88;;;;;;;14.12;91.66;98515.91;5032205;28;20516;-82
2021/09/03 05:30:08;;;;;;;7.10;4.75;;;;;;;14.24;91.37;98518.13;5031258;28;20017;-77
2021/09/03 05:32:34;;;;;;;7.18;5.28;;;;;;;14.40;91.07;98511.25;5034089;28;20043;-74
2021/09/03 05:35:00;;;;;;;6.20;5.15;;;;;;;14.39;90.38;98517.88;5030846;28;20022;-74
2021/09/03 05:37:26;;;;;;;8.45;4.68;;;;;;;14.59;89.44;98511.94;5031035;28;20042;-74
2021/09/03 05:39:51;;;;;;;13.23;5.60;;;;;;;14.49;90.12;98509.41;5035741;28;20025;-75
2021/09/03 05:42:18;;;;;;;7.82;5.93;;;;;;;14.29;90.90;98507.84;5032231;28;20382;-75
2021/09/03 05:44:44;;;;;;;9.50;5.22;;;;;;;14.50;89.99;98508.28;5014202;28;20048;-75
2021/09/03 05:47:10;;;;;;;9.45;5.20;;;;;;;14.67;88.25;98513.16;5032183;28;20112;-81
2021/09/03 05:49:36;;;;;;;10.45;5.70;;;;;;;14.55;88.54;98508.16;5031963;28;20063;-84
2021/09/03 05:52:02;;;;;;;7.82;5.22;;;;;;;14.66;88.08;98503.28;5014979;28;20087;-82
2021/09/03 05:54:27;;;;;;;8.30;5.78;;;;;;;14.65;87.82;98502.47;5032321;28;20033;-83
2021/09/03 05:56:53;;;;;;;8.93;5.63;;;;;;;14.71;86.78;98490.22;5032298;28;20033;-82
2021/09/03 05:59:18;;;;;;;7.03;5.03;;;;;;;14.62;87.03;98497.56;5032333;28;20031;-80
2021/09/03 06:01:44;;;;;;;8.15;5.32;;;;;;;14.70;87.12;98510.59;5031911;28;20052;-81
2021/09/03 06:04:09;;;;;;;8.77;5.63;;;;;;;14.69;85.97;98484.16;5031058;28;20029;-75
2021/09/03 06:06:35;;;;;;;7.53;6.43;;;;;;;14.99;85.35;98502.78;5034627;28;20522;-81
2021/09/03 06:09:00;;;;;;;8.20;5.63;;;;;;;15.30;83.87;98502.06;5015269;28;20036;-82
2021/09/03 06:11:25;;;;;;;8.18;5.57;;;;;;;15.19;84.14;98503.44;5032351;28;20026;-82
2021/09/03 06:13:55;;;;;;;6.32;5.13;;;;;;;15.57;83.39;98501.97;5015289;28;20022;-79
2021/09/03 06:16:25;;;;;;;6.22;5.20;;;;;;;15.56;82.69;98491.25;5013557;28;20497;-82
2021/09/03 06:18:54;;;;;;;7.10;5.72;;;;;;;15.98;81.79;98501.72;5014592;28;20040;-83
2021/09/03 06:21:19;;;;;;;6.65;4.90;;;;;;;15.96;81.12;98504.81;5030984;28;20033;-83
2021/09/03 06:23:45;;;;;;;7.28;5.38;;;;;;;16.10;80.47;98496.41;5019733;28;20017;-85
2021/09/03 06:26:10;;;;;;;10.10;6.15;;;;;;;16.39;79.36;98501.41;5046596;28;20030;-80
2021/09/03 06:28:36;;;;;;;9.07;6.93;;;;;;;16.04;80.26;98501.28;5035217;28;20509;-83
2021/09/03 06:31:02;;;;;;;11.80;5.93;;;;;;;16.31;80.88;98502.19;5029777;28;20025;-85
2021/09/03 06:33:28;;;;;;;15.43;7.60;;;;;;;16.35;79.69;98498.47;5034335;28;20018;-85
2021/09/03 06:35:53;;;;;;;8.70;6.13;;;;;;;16.55;78.53;98505.41;5024245;28;20473;-80
2021/09/03 06:38:19;;;;;;;13.45;6.38;;;;;;;16.46;80.13;98507.28;5014398;28;20053;-81
2021/09/03 06:40:44;;;;;;;15.73;7.85;;;;;;;16.75;77.82;98493.75;5031895;28;20099;-82
2021/09/03 06:43:10;;;;;;;11.32;6.10;;;;;;;16.85;76.97;98493.44;5032089;28;20036;-82
2021/09/03 06:45:35;;;;;;;10.15;7.47;;;;;;;16.82;77.30;98494.06;5014556;28;20039;-83
2021/09/03 06:48:02;;;;;;;12.20;6.55;;;;;;;16.87;77.49;98491.16;5031815;28;20543;-82
2021/09/03 06:50:28;;;;;;;8.82;6.40;;;;;;;16.83;77.30;98479.13;5026834;28;20021;-81
2021/09/03 06:52:53;;;;;;;14.90;7.65;;;;;;;16.88;77.33;98481.75;5031612;28;20410;-81
2021/09/03 06:55:19;;;;;;;14.50;7.28;;;;;;;17.10;76.88;98491.84;5000300;28;20382;-81
2021/09/03 06:57:45;;;;;;;9.32;6.40;;;;;;;17.25;77.07;98496.06;5004764;28;20440;-84
2021/09/03 07:00:10;;;;;;;11.90;7.97;;;;;;;16.95;78.40;98486.78;5031473;28;20108;-83
2021/09/03 07:02:37;;;;;;;10.88;7.60;;;;;;;17.26;75.85;98475.59;5031437;28;20026;-80
2021/09/03 07:05:03;;;;;;;16.27;7.45;;;;;;;17.24;75.65;98486.97;5031378;28;20033;-82
2021/09/03 07:07:28;;;;;;;10.90;7.20;;;;;;;17.47;75.43;98493.97;5032970;28;20047;-88
2021/09/03 07:09:56;;;;;;;16.63;7.25;;;;;;;17.87;73.20;98491.78;5018027;28;20037;-88
2021/09/03 07:12:22;;;;;;;14.00;7.82;;;;;;;17.63;73.87;98486.81;5017711;28;20025;-86
2021/09/03 07:14:48;;;;;;;10.98;6.70;;;;;;;17.91;72.19;98498.31;5016702;28;20038;-86
2021/09/03 07:17:13;;;;;;;11.20;8.35;;;;;;;18.07;71.92;98496.59;5017500;28;20029;-85
2021/09/03 07:19:39;;;;;;;9.13;6.72;;;;;;;17.97;71.54;98491.44;5035178;28;20026;-88
2021/09/03 07:22:05;;;;;;;10.27;6.25;;;;;;;18.25;70.79;98491.00;5017319;28;20029;-87
2021/09/03 07:24:31;;;;;;;11.25;6.53;;;;;;;18.86;69.07;98504.25;5017732;28;20025;-86
2021/09/03 07:26:57;;;;;;;12.35;6.50;;;;;;;19.18;67.61;98497.97;5024417;28;20806;-88
2021/09/03 07:29:24;;;;;;;13.18;6.78;;;;;;;19.33;67.00;98506.84;5017757;28;20064;-87
2021/09/03 07:31:50;;;;;;;10.57;6.90;;;;;;;19.22;67.22;98496.16;5035819;28;20096;-86
2021/09/03 07:34:15;;;;;;;16.13;7.20;;;;;;;19.46;66.65;98506.59;5035470;28;20470;-87
2021/09/03 07:36:41;;;;;;;8.05;6.55;;;;;;;20.39;63.38;98524.63;5032877;28;20109;-84
2021/09/03 07:39:06;;;;;;;14.45;7.50;;;;;;;21.03;60.97;98522.75;5029409;28;20049;-86
2021/09/03 07:41:32;;;;;;;11.30;6.15;;;;;;;21.96;57.72;98529.16;5027413;28;20497;-84
2021/09/03 07:43:58;;;;;;;14.57;6.22;;;;;;;22.78;56.12;98530.13;5039013;28;20029;-83
2021/09/03 07:46:23;;;;;;;14.05;6.18;;;;;;;22.57;55.02;98524.00;5019905;28;20775;-82
2021/09/03 07:48:49;;;;;;;12.43;7.03;;;;;;;22.57;53.86;98518.41;5047232;28;20021;-83
2021/09/03 07:51:15;;;;;;;14.80;7.50;;;;;;;22.09;56.16;98514.78;5021840;28;20057;-84
2021/09/03 07:53:41;;;;;;;13.57;7.57;;;;;;;22.21;54.78;98517.47;5017996;28;20033;-84
2021/09/03 07:56:07;;;;;;;8.50;7.22;;;;;;;22.39;54.21;98527.16;5033740;28;20029;-83
2021/09/03 07:58:32;;;;;;;10.05;6.18;;;;;;;22.43;53.80;98527.22;5035446;28;20492;-84
2021/09/03 08:01:00;;;;;;;12.18;6.10;;;;;;;23.15;51.58;98517.44;5019573;28;20106;-85
2021/09/03 08:03:25;;;;;;;6.82;5.80;;;;;;;23.43;50.24;98520.91;5050141;28;20109;-83
2021/09/03 08:05:51;;;;;;;8.75;5.75;;;;;;;24.42;49.64;98524.91;5053404;28;20025;-83
2021/09/03 08:08:18;;;;;;;7.63;5.70;;;;;;;24.68;46.35;98524.97;5034910;28;20043;-82
2021/09/03 08:10:43;;;;;;;10.60;5.00;;;;;;;24.15;48.55;98515.59;5026107;28;20047;-83
2021/09/03 08:13:09;;;;;;;7.97;5.22;;;;;;;25.60;46.07;98517.16;5032951;28;20029;-83
2021/09/03 08:15:36;;;;;;;7.07;5.18;;;;;;;25.36;44.97;98510.84;5032571;28;20084;-82
2021/09/03 08:18:02;;;;;;;9.38;5.43;;;;;;;24.95;45.84;98509.03;5015523;28;20020;-82
2021/09/03 08:20:29;;;;;;;6.90;5.53;;;;;;;25.94;43.47;98507.56;5015065;28;20375;-80
2021/09/03 08:22:55;;;;;;;6.95;5.53;;;;;;;25.88;43.03;98497.91;5033506;28;20025;-83
2021/09/03 08:25:22;;;;;;;10.88;4.50;;;;;;;27.72;38.90;98500.25;5015516;28;20128;-84
2021/09/03 08:27:49;;;;;;;10.85;4.32;;;;;;;28.73;36.01;98509.38;4999253;28;20047;-82
2021/09/03 08:30:16;;;;;;;8.52;5.15;;;;;;;27.46;37.25;98504.16;5015128;28;20120;-82
2021/09/03 08:32:42;;;;;;;8.55;4.18;;;;;;;26.17;39.98;98501.84;5014862;28;20396;-83
2021/09/03 08:35:07;;;;;;;6.13;4.22;;;;;;;26.15;39.99;98499.41;5033100;28;20096;-81
2021/09/03 08:37:34;;;;;;;8.25;4.10;;;;;;;26.14;39.42;98497.78;5032955;28;20084;-81
2021/09/03 08:40:00;;;;;;;8.90;4.22;;;;;;;25.93;38.81;98486.34;5032543;28;20102;-81
2021/09/03 08:42:28;;;;;;;5.38;4.30;;;;;;;25.85;39.38;98501.47;5015281;28;20602;-81
2021/09/03 08:44:55;;;;;;;4.25;3.75;;;;;;;28.52;34.89;98501.69;5000185;28;20037;-82
2021/09/03 08:47:22;;;;;;;3.08;2.78;;;;;;;26.47;36.49;98491.34;5049402;28;20117;-83
2021/09/03 08:49:47;;;;;;;7.10;3.10;;;;;;;27.21;35.34;98500.38;5039097;28;20029;-82
2021/09/03 08:52:13;;;;;;;4.68;3.17;;;;;;;26.29;36.07;98499.56;5036176;28;20552;-82
2021/09/03 08:54:38;;;;;;;6.68;3.60;;;;;;;26.19;36.88;98483.44;5019106;28;20231;-81
2021/09/03 08:57:05;;;;;;;6.60;4.10;;;;;;;27.77;35.79;98493.44;5036122;28;20390;-82
2021/09/03 08:59:31;;;;;;;4.65;3.42;;;;;;;26.65;38.03;98488.69;5018190;28;20029;-82
2021/09/03 09:02:20;;;;;;;6.05;3.38;;;;;;;28.46;35.00;98491.22;5036286;28;20070;-79
2021/09/03 09:04:50;;;;;;;5.78;4.28;;;;;;;27.74;35.36;98477.34;5036160;28;20382;-79
2021/09/03 09:07:16;;;;;;;5.47;3.55;;;;;;;27.39;36.06;98481.59;5034091;28;20033;-83
2021/09/03 09:09:44;;;;;;;7.85;2.88;;;;;;;29.82;31.69;98482.19;5037569;28;20067;-80
2021/09/03 09:12:12;;;;;;;9.73;3.95;;;;;;;28.93;31.87;98475.97;5053265;28;20087;-80
2021/09/03 09:15:03;;;;;;;4.50;3.42;;;;;;;27.13;35.61;98476.22;5030245;28;20035;-80
2021/09/03 09:17:38;;;;;;;12.90;3.53;;;;;;;27.05;36.43;98471.75;5035929;28;20061;-81
2021/09/03 09:20:06;;;;;;;4.47;2.97;;;;;;;28.17;33.67;98471.47;5019706;28;20040;-83
2021/09/03 09:22:53;;;;;;;4.15;3.00;;;;;;;28.66;32.37;98470.72;5042822;28;20041;-83
2021/09/03 09:25:32;;;;;;;8.30;3.60;;;;;;;26.93;35.99;98455.22;5058346;28;20021;-82
2021/09/03 09:28:17;;;;;;;6.65;3.47;;;;;;;27.01;35.79;98445.63;5046611;28;20087;-82
2021/09/03 09:30:44;;;;;;;3.25;2.38;;;;;;;28.11;32.87;98449.75;5038948;28;20363;-82
2021/09/03 09:33:14;;;;;;;4.28;2.80;;;;;;;27.73;34.28;98454.03;5018507;28;20091;-84
2021/09/03 09:35:50;;;;;;;6.20;3.75;;;;;;;26.82;35.13;98448.72;5036685;28;20029;-81
2021/09/03 09:38:20;;;;;;;8.35;3.35;;;;;;;26.91;35.79;98446.41;5049615;28;20060;-81
2021/09/03 09:40:56;;;;;;;4.15;3.00;;;;;;;26.87;34.02;98443.56;5055225;28;20401;-81
2021/09/03 09:43:30;;;;;;;7.68;3.55;;;;;;;27.55;33.27;98451.19;5055573;28;20586;-83
2021/09/03 09:46:15;;;;;;;5.45;3.83;;;;;;;28.02;33.08;98449.31;5037536;28;20108;-81
2021/09/03 09:48:49;;;;;;;4.43;3.80;;;;;;;28.01;33.74;98447.69;5037348;28;21734;-80
2021/09/03 09:51:22;;;;;;;;;;;;;;;27.30;34.76;98444.59;5055624;28;20025;-82
2021/09/03 09:54:16;;;;;;;9.23;5.32;;;;;;;28.70;32.74;98440.56;5037617;28;19960;-79
2021/09/03 09:56:46;;;;;;;5.40;3.72;;;;;;;27.92;33.25;98431.19;5054788;28;20048;-81
2021/09/03 09:59:13;;;;;;;5.88;3.30;;;;;;;27.63;33.28;98427.50;5054908;28;20033;-83
2021/09/03 10:01:41;;;;;;;4.55;3.08;;;;;;;27.95;31.90;98432.41;5042740;28;20045;-82
2021/09/03 10:04:13;;;;;;;5.28;3.45;;;;;;;27.62;32.53;98425.09;5047961;28;20025;-81
2021/09/03 10:06:40;;;;;;;7.55;3.40;;;;;;;27.76;32.44;98432.75;5025595;28;20029;-82
2021/09/03 10:09:12;;;;;;;9.98;3.35;;;;;;;28.39;32.43;98435.72;5033138;28;20028;-82
2021/09/03 10:11:39;;;;;;;3.20;2.75;;;;;;;30.15;28.83;98425.97;5042900;28;20053;-85
2021/09/03 10:14:06;;;;;;;4.32;3.20;;;;;;;27.77;31.96;98417.50;5049765;28;20022;-84
2021/09/03 10:16:32;;;;;;;2.92;2.40;;;;;;;28.33;30.91;98420.44;5035634;28;20041;-82
2021/09/03 10:19:01;;;;;;;4.72;2.53;;;;;;;30.14;28.66;98412.25;5017174;28;20026;-82
2021/09/03 10:21:28;;;;;;;3.55;3.10;;;;;;;28.69;29.92;98410.78;5018190;28;20022;-82
2021/09/03 10:24:08;;;;;;;4.05;2.88;;;;;;;28.56;30.48;98403.94;5018261;28;20515;-83
2021/09/03 10:26:43;;;;;;;3.58;2.33;;;;;;;27.87;29.81;98409.09;5017751;28;20021;-82
2021/09/03 10:29:30;;;;;;;3.28;2.22;;;;;;;27.30;32.30;98396.84;5034516;28;20034;-83
2021/09/03 10:32:08;;;;;;;4.82;2.17;;;;;;;28.94;29.58;98399.50;5032072;28;20013;-83
2021/09/03 10:34:43;;;;;;;3.25;2.15;;;;;;;29.87;28.05;98405.59;5025378;28;20033;-87
2021/09/03 10:37:17;;;;;;;3.97;2.03;;;;;;;28.54;29.72;98395.09;5031440;28;21077;-84
2021/09/03 10:39:52;;;;;;;2.83;2.38;;;;;;;29.03;29.40;98379.34;5071078;28;20044;-82
2021/09/03 10:45:22;;;;;;;4.28;2.70;;;;;;;28.12;31.72;98392.28;5055183;28;20361;-83
2021/09/03 10:48:11;;;;;;;3.58;2.75;;;;;;;27.65;32.40;98379.31;5053717;28;20108;-84
2021/09/03 10:50:47;;;;;;;2.90;2.33;;;;;;;27.46;32.18;98377.66;5052069;28;20025;-83
2021/09/03 10:53:22;;;;;;;6.28;2.70;;;;;;;27.18;33.34;98377.53;5037068;28;20028;-82
2021/09/03 10:56:05;;;;;;;4.10;3.05;;;;;;;27.62;33.08;98386.53;5019731;28;20024;-84
2021/09/03 10:58:36;;;;;;;4.50;2.85;;;;;;;25.96;36.54;98367.81;5034368;28;20036;-85
2021/09/03 11:01:10;;;;;;;6.53;3.85;;;;;;;25.27;38.60;98361.03;5017412;28;20026;-85
2021/09/03 11:03:47;;;;;;;5.37;3.90;;;;;;;24.76;40.13;98366.34;5017173;28;20032;-86
2021/09/03 11:06:13;;;;;;;5.25;2.83;;;;;;;24.54;40.81;98359.63;5029345;28;20001;-86
2021/09/03 11:08:44;;;;;;;8.73;4.47;;;;;;;23.81;41.30;98346.84;5025684;28;20071;-85
2021/09/03 11:11:29;;;;;;;5.10;3.25;;;;;;;24.12;40.79;98337.41;5035771;28;20049;-86
2021/09/03 11:14:06;;;;;;;6.13;4.00;;;;;;;24.60;40.04;98323.72;5018440;28;20030;-85
2021/09/03 11:16:38;;;;;;;4.68;3.53;;;;;;;24.93;39.70;98329.44;5018565;28;20029;-85
2021/09/03 11:19:19;;;;;;;8.63;3.00;;;;;;;25.06;39.37;98330.75;5034918;28;20036;-85
2021/09/03 11:21:52;;;;;;;12.45;3.80;;;;;;;24.88;39.59;98329.75;5016918;28;20039;-83
2021/09/03 11:24:24;;;;;;;6.43;3.08;;;;;;;24.65;40.34;98331.81;5018413;28;20390;-85
2021/09/03 11:26:51;;;;;;;5.80;3.17;;;;;;;24.26;40.63;98336.81;5041643;28;20034;-83
2021/09/03 11:29:23;;;;;;;11.40;4.30;;;;;;;24.28;40.63;98340.03;5032962;28;20080;-74
2021/09/03 11:32:10;;;;;;;5.25;3.45;;;;;;;24.24;40.85;98328.84;5030398;28;20025;-73
2021/09/03 11:34:42;;;;;;;3.97;3.03;;;;;;;24.81;40.20;98319.25;5013222;28;20036;-74
2021/09/03 11:37:07;;;;;;;7.13;3.25;;;;;;;24.76;39.48;98307.56;5016589;28;20038;-75